sensor_id;sensor_type;location;lat;lon;timestamp;P1;durP1;ratioP1;P2;durP2;ratioP2
48623;SDS011;75490;45.802;16.114;2024-01-15T00:02:03;129.90;;;71.85;;
48623;SDS011;75490;45.802;16.114;2024-01-15T00:04:30;139.25;;;76.35;;
48623;SDS011;75490;45.802;16.114;2024-01-15T00:06:56;147.45;;;75.30;;
48623;SDS011;75490;45.802;16.114;2024-01-15T00:09:23;138.25;;;71.95;;
48623;SDS011;75490;45.802;16.114;2024-01-15T00:11:50;141.30;;;74.75;;
48623;SDS011;75490;45.802;16.114;2024-01-15T00:14:17;129.80;;;70.78;;
48623;SDS011;75490;45.802;16.114;2024-01-15T00:16:46;127.85;;;70.20;;
48623;SDS011;75490;45.802;16.114;2024-01-15T00:19:15;127.63;;;72.95;;
48623;SDS011;75490;45.802;16.114;2024-01-15T00:21:42;111.95;;;64.57;;
48623;SDS011;75490;45.802;16.114;2024-01-15T00:24:09;123.88;;;67.75;;
48623;SDS011;75490;45.802;16.114;2024-01-15T00:26:35;121.75;;;70.20;;
48623;SDS011;75490;45.802;16.114;2024-01-15T00:29:02;125.28;;;70.60;;
48623;SDS011;75490;45.802;16.114;2024-01-15T00:31:29;135.20;;;74.60;;
48623;SDS011;75490;45.802;16.114;2024-01-15T00:33:56;136.95;;;77.93;;
48623;SDS011;75490;45.802;16.114;2024-01-15T00:36:24;137.20;;;74.60;;
48623;SDS011;75490;45.802;16.114;2024-01-15T00:38:51;133.32;;;72.68;;
48623;SDS011;75490;45.802;16.114;2024-01-15T00:41:17;131.75;;;74.22;;
48623;SDS011;75490;45.802;16.114;2024-01-15T00:43:45;118.07;;;70.30;;
48623;SDS011;75490;45.802;16.114;2024-01-15T00:46:12;125.68;;;72.53;;
48623;SDS011;75490;45.802;16.114;2024-01-15T00:48:39;114.93;;;66.07;;
48623;SDS011;75490;45.802;16.114;2024-01-15T00:51:06;123.10;;;67.43;;
48623;SDS011;75490;45.802;16.114;2024-01-15T00:53:33;118.10;;;63.27;;
48623;SDS011;75490;45.802;16.114;2024-01-15T00:56:00;105.10;;;61.08;;
48623;SDS011;75490;45.802;16.114;2024-01-15T00:58:28;116.53;;;60.55;;
48623;SDS011;75490;45.802;16.114;2024-01-15T01:00:55;106.27;;;59.13;;
48623;SDS011;75490;45.802;16.114;2024-01-15T01:03:22;107.13;;;60.03;;
48623;SDS011;75490;45.802;16.114;2024-01-15T01:05:52;109.05;;;58.08;;
48623;SDS011;75490;45.802;16.114;2024-01-15T01:08:18;107.87;;;57.97;;
48623;SDS011;75490;45.802;16.114;2024-01-15T01:10:46;111.93;;;63.57;;
48623;SDS011;75490;45.802;16.114;2024-01-15T01:13:13;120.82;;;65.32;;
48623;SDS011;75490;45.802;16.114;2024-01-15T01:15:39;120.95;;;66.18;;
48623;SDS011;75490;45.802;16.114;2024-01-15T01:18:06;122.77;;;67.17;;
48623;SDS011;75490;45.802;16.114;2024-01-15T01:20:33;125.28;;;68.57;;
48623;SDS011;75490;45.802;16.114;2024-01-15T01:23:01;125.93;;;69.28;;
48623;SDS011;75490;45.802;16.114;2024-01-15T01:25:27;123.53;;;68.90;;
48623;SDS011;75490;45.802;16.114;2024-01-15T01:27:57;118.10;;;66.95;;
48623;SDS011;75490;45.802;16.114;2024-01-15T01:30:24;113.03;;;65.80;;
48623;SDS011;75490;45.802;16.114;2024-01-15T01:32:51;112.85;;;64.13;;
48623;SDS011;75490;45.802;16.114;2024-01-15T01:35:17;115.65;;;67.28;;
48623;SDS011;75490;45.802;16.114;2024-01-15T01:37:48;123.90;;;71.05;;
48623;SDS011;75490;45.802;16.114;2024-01-15T01:40:15;112.25;;;61.67;;
48623;SDS011;75490;45.802;16.114;2024-01-15T01:42:43;117.38;;;66.10;;
48623;SDS011;75490;45.802;16.114;2024-01-15T01:45:10;108.30;;;62.42;;
48623;SDS011;75490;45.802;16.114;2024-01-15T01:47:37;116.95;;;65.22;;
48623;SDS011;75490;45.802;16.114;2024-01-15T01:50:05;123.55;;;66.80;;
48623;SDS011;75490;45.802;16.114;2024-01-15T01:52:34;118.00;;;67.03;;
48623;SDS011;75490;45.802;16.114;2024-01-15T01:55:02;122.55;;;66.10;;
48623;SDS011;75490;45.802;16.114;2024-01-15T01:57:30;113.75;;;64.03;;
48623;SDS011;75490;45.802;16.114;2024-01-15T02:00:05;114.63;;;63.78;;
48623;SDS011;75490;45.802;16.114;2024-01-15T02:02:33;120.10;;;65.03;;
48623;SDS011;75490;45.802;16.114;2024-01-15T02:05:01;99.90;;;55.05;;
48623;SDS011;75490;45.802;16.114;2024-01-15T02:07:31;112.63;;;63.13;;
48623;SDS011;75490;45.802;16.114;2024-01-15T02:10:01;121.30;;;65.70;;
48623;SDS011;75490;45.802;16.114;2024-01-15T02:12:28;109.60;;;61.47;;
48623;SDS011;75490;45.802;16.114;2024-01-15T02:14:56;93.70;;;55.92;;
48623;SDS011;75490;45.802;16.114;2024-01-15T02:17:24;110.05;;;61.92;;
48623;SDS011;75490;45.802;16.114;2024-01-15T02:19:51;109.40;;;60.00;;
48623;SDS011;75490;45.802;16.114;2024-01-15T02:22:19;113.72;;;63.55;;
48623;SDS011;75490;45.802;16.114;2024-01-15T02:24:47;119.07;;;63.47;;
48623;SDS011;75490;45.802;16.114;2024-01-15T02:27:15;101.13;;;61.30;;
48623;SDS011;75490;45.802;16.114;2024-01-15T02:29:43;118.55;;;64.63;;
48623;SDS011;75490;45.802;16.114;2024-01-15T02:32:10;111.20;;;60.95;;
48623;SDS011;75490;45.802;16.114;2024-01-15T02:34:37;124.20;;;65.55;;
48623;SDS011;75490;45.802;16.114;2024-01-15T02:37:05;107.30;;;60.05;;
48623;SDS011;75490;45.802;16.114;2024-01-15T02:39:32;111.10;;;65.38;;
48623;SDS011;75490;45.802;16.114;2024-01-15T02:42:00;111.78;;;63.20;;
48623;SDS011;75490;45.802;16.114;2024-01-15T02:44:27;107.70;;;63.85;;
48623;SDS011;75490;45.802;16.114;2024-01-15T02:46:54;104.65;;;60.85;;
48623;SDS011;75490;45.802;16.114;2024-01-15T02:49:21;112.03;;;64.90;;
48623;SDS011;75490;45.802;16.114;2024-01-15T02:51:48;120.13;;;65.47;;
48623;SDS011;75490;45.802;16.114;2024-01-15T02:54:15;111.40;;;61.80;;
48623;SDS011;75490;45.802;16.114;2024-01-15T02:56:42;108.65;;;60.80;;
48623;SDS011;75490;45.802;16.114;2024-01-15T02:59:09;115.47;;;62.13;;
48623;SDS011;75490;45.802;16.114;2024-01-15T03:01:36;105.20;;;59.60;;
48623;SDS011;75490;45.802;16.114;2024-01-15T03:04:02;120.40;;;63.97;;
48623;SDS011;75490;45.802;16.114;2024-01-15T03:06:30;166.88;;;78.18;;
48623;SDS011;75490;45.802;16.114;2024-01-15T03:09:02;156.15;;;82.95;;
48623;SDS011;75490;45.802;16.114;2024-01-15T03:11:36;160.02;;;81.60;;
48623;SDS011;75490;45.802;16.114;2024-01-15T03:14:04;225.43;;;100.68;;
48623;SDS011;75490;45.802;16.114;2024-01-15T03:16:31;140.88;;;70.18;;
48623;SDS011;75490;45.802;16.114;2024-01-15T03:19:02;135.60;;;70.65;;
48623;SDS011;75490;45.802;16.114;2024-01-15T03:21:29;149.57;;;74.47;;
48623;SDS011;75490;45.802;16.114;2024-01-15T03:23:59;135.23;;;68.45;;
48623;SDS011;75490;45.802;16.114;2024-01-15T03:26:26;125.22;;;66.40;;
48623;SDS011;75490;45.802;16.114;2024-01-15T03:28:53;125.95;;;65.35;;
48623;SDS011;75490;45.802;16.114;2024-01-15T03:31:22;114.30;;;63.63;;
48623;SDS011;75490;45.802;16.114;2024-01-15T03:33:50;113.93;;;62.40;;
48623;SDS011;75490;45.802;16.114;2024-01-15T03:36:17;123.57;;;65.75;;
48623;SDS011;75490;45.802;16.114;2024-01-15T03:38:44;136.90;;;71.88;;
48623;SDS011;75490;45.802;16.114;2024-01-15T03:41:14;158.32;;;80.82;;
48623;SDS011;75490;45.802;16.114;2024-01-15T03:43:41;122.30;;;66.55;;
48623;SDS011;75490;45.802;16.114;2024-01-15T03:46:09;105.78;;;58.60;;
48623;SDS011;75490;45.802;16.114;2024-01-15T03:48:36;100.82;;;61.08;;
48623;SDS011;75490;45.802;16.114;2024-01-15T03:51:03;97.95;;;58.53;;
48623;SDS011;75490;45.802;16.114;2024-01-15T03:53:35;105.25;;;58.33;;
48623;SDS011;75490;45.802;16.114;2024-01-15T03:56:02;94.43;;;56.78;;
48623;SDS011;75490;45.802;16.114;2024-01-15T03:58:29;93.20;;;54.42;;
48623;SDS011;75490;45.802;16.114;2024-01-15T04:00:56;99.00;;;55.85;;
48623;SDS011;75490;45.802;16.114;2024-01-15T04:03:22;98.78;;;57.05;;
48623;SDS011;75490;45.802;16.114;2024-01-15T04:05:50;99.80;;;57.60;;
48623;SDS011;75490;45.802;16.114;2024-01-15T04:08:17;94.07;;;53.13;;
48623;SDS011;75490;45.802;16.114;2024-01-15T04:10:44;98.07;;;55.80;;
48623;SDS011;75490;45.802;16.114;2024-01-15T04:13:11;87.10;;;50.65;;
48623;SDS011;75490;45.802;16.114;2024-01-15T04:15:38;103.00;;;54.38;;
48623;SDS011;75490;45.802;16.114;2024-01-15T04:18:05;85.68;;;51.00;;
48623;SDS011;75490;45.802;16.114;2024-01-15T04:20:31;95.85;;;53.65;;
48623;SDS011;75490;45.802;16.114;2024-01-15T04:22:58;82.55;;;46.53;;
48623;SDS011;75490;45.802;16.114;2024-01-15T04:25:25;112.00;;;58.58;;
48623;SDS011;75490;45.802;16.114;2024-01-15T04:27:51;111.05;;;55.63;;
48623;SDS011;75490;45.802;16.114;2024-01-15T04:30:19;124.45;;;61.92;;
48623;SDS011;75490;45.802;16.114;2024-01-15T04:32:48;116.53;;;62.45;;
48623;SDS011;75490;45.802;16.114;2024-01-15T04:35:19;108.47;;;61.13;;
48623;SDS011;75490;45.802;16.114;2024-01-15T04:37:45;102.32;;;58.88;;
48623;SDS011;75490;45.802;16.114;2024-01-15T04:40:12;94.07;;;52.70;;
48623;SDS011;75490;45.802;16.114;2024-01-15T04:42:40;99.18;;;53.40;;
48623;SDS011;75490;45.802;16.114;2024-01-15T04:45:07;102.55;;;55.28;;
48623;SDS011;75490;45.802;16.114;2024-01-15T04:47:34;106.43;;;56.20;;
48623;SDS011;75490;45.802;16.114;2024-01-15T04:50:03;96.35;;;49.55;;
48623;SDS011;75490;45.802;16.114;2024-01-15T04:52:31;87.43;;;49.20;;
48623;SDS011;75490;45.802;16.114;2024-01-15T04:54:58;95.68;;;53.33;;
48623;SDS011;75490;45.802;16.114;2024-01-15T04:57:25;99.13;;;54.47;;
48623;SDS011;75490;45.802;16.114;2024-01-15T04:59:52;96.68;;;52.80;;
48623;SDS011;75490;45.802;16.114;2024-01-15T05:02:18;90.32;;;50.80;;
48623;SDS011;75490;45.802;16.114;2024-01-15T05:04:45;84.63;;;49.83;;
48623;SDS011;75490;45.802;16.114;2024-01-15T05:07:12;89.80;;;50.10;;
48623;SDS011;75490;45.802;16.114;2024-01-15T05:09:39;88.13;;;50.70;;
48623;SDS011;75490;45.802;16.114;2024-01-15T05:12:06;81.03;;;44.22;;
48623;SDS011;75490;45.802;16.114;2024-01-15T05:14:33;85.05;;;47.95;;
48623;SDS011;75490;45.802;16.114;2024-01-15T05:17:00;83.53;;;50.50;;
48623;SDS011;75490;45.802;16.114;2024-01-15T05:19:27;86.55;;;49.38;;
48623;SDS011;75490;45.802;16.114;2024-01-15T05:21:53;85.70;;;49.10;;
48623;SDS011;75490;45.802;16.114;2024-01-15T05:24:20;84.43;;;47.88;;
48623;SDS011;75490;45.802;16.114;2024-01-15T05:26:47;91.05;;;48.92;;
48623;SDS011;75490;45.802;16.114;2024-01-15T05:29:13;85.85;;;48.03;;
48623;SDS011;75490;45.802;16.114;2024-01-15T05:31:40;92.22;;;52.08;;
48623;SDS011;75490;45.802;16.114;2024-01-15T05:34:07;122.75;;;61.78;;
48623;SDS011;75490;45.802;16.114;2024-01-15T05:36:34;108.15;;;59.15;;
48623;SDS011;75490;45.802;16.114;2024-01-15T05:39:00;94.60;;;54.97;;
48623;SDS011;75490;45.802;16.114;2024-01-15T05:41:27;96.45;;;52.92;;
48623;SDS011;75490;45.802;16.114;2024-01-15T05:43:54;94.82;;;52.17;;
48623;SDS011;75490;45.802;16.114;2024-01-15T05:46:21;95.10;;;53.53;;
48623;SDS011;75490;45.802;16.114;2024-01-15T05:48:48;83.88;;;49.20;;
48623;SDS011;75490;45.802;16.114;2024-01-15T05:51:14;90.57;;;50.65;;
48623;SDS011;75490;45.802;16.114;2024-01-15T05:53:41;89.97;;;50.80;;
48623;SDS011;75490;45.802;16.114;2024-01-15T05:56:09;95.05;;;51.55;;
48623;SDS011;75490;45.802;16.114;2024-01-15T05:58:37;86.85;;;49.05;;
48623;SDS011;75490;45.802;16.114;2024-01-15T06:01:03;78.35;;;46.35;;
48623;SDS011;75490;45.802;16.114;2024-01-15T06:03:30;83.68;;;48.38;;
48623;SDS011;75490;45.802;16.114;2024-01-15T06:05:57;85.00;;;47.35;;
48623;SDS011;75490;45.802;16.114;2024-01-15T06:08:24;83.28;;;45.67;;
48623;SDS011;75490;45.802;16.114;2024-01-15T06:10:53;75.97;;;44.80;;
48623;SDS011;75490;45.802;16.114;2024-01-15T06:13:19;80.63;;;46.42;;
48623;SDS011;75490;45.802;16.114;2024-01-15T06:15:46;83.68;;;49.97;;
48623;SDS011;75490;45.802;16.114;2024-01-15T06:18:13;78.15;;;46.78;;
48623;SDS011;75490;45.802;16.114;2024-01-15T06:20:40;79.65;;;46.00;;
48623;SDS011;75490;45.802;16.114;2024-01-15T06:23:07;86.90;;;46.47;;
48623;SDS011;75490;45.802;16.114;2024-01-15T06:25:33;86.68;;;46.67;;
48623;SDS011;75490;45.802;16.114;2024-01-15T06:28:00;83.13;;;48.40;;
48623;SDS011;75490;45.802;16.114;2024-01-15T06:30:27;83.28;;;47.75;;
48623;SDS011;75490;45.802;16.114;2024-01-15T06:32:54;79.68;;;47.78;;
48623;SDS011;75490;45.802;16.114;2024-01-15T06:35:22;77.85;;;45.33;;
48623;SDS011;75490;45.802;16.114;2024-01-15T06:37:48;77.97;;;45.83;;
48623;SDS011;75490;45.802;16.114;2024-01-15T06:40:15;80.43;;;46.40;;
48623;SDS011;75490;45.802;16.114;2024-01-15T06:42:42;78.65;;;43.47;;
48623;SDS011;75490;45.802;16.114;2024-01-15T06:45:09;81.28;;;44.92;;
48623;SDS011;75490;45.802;16.114;2024-01-15T06:47:35;77.25;;;45.75;;
48623;SDS011;75490;45.802;16.114;2024-01-15T06:50:02;78.72;;;43.65;;
48623;SDS011;75490;45.802;16.114;2024-01-15T06:52:31;71.35;;;40.22;;
48623;SDS011;75490;45.802;16.114;2024-01-15T06:54:58;83.82;;;48.00;;
48623;SDS011;75490;45.802;16.114;2024-01-15T06:57:24;67.78;;;39.80;;
48623;SDS011;75490;45.802;16.114;2024-01-15T06:59:51;66.10;;;38.38;;
48623;SDS011;75490;45.802;16.114;2024-01-15T07:02:18;64.03;;;39.03;;
48623;SDS011;75490;45.802;16.114;2024-01-15T07:04:45;75.32;;;43.83;;
48623;SDS011;75490;45.802;16.114;2024-01-15T07:07:11;78.22;;;43.63;;
48623;SDS011;75490;45.802;16.114;2024-01-15T07:09:38;69.57;;;42.20;;
48623;SDS011;75490;45.802;16.114;2024-01-15T07:12:05;81.72;;;44.03;;
48623;SDS011;75490;45.802;16.114;2024-01-15T07:14:32;78.35;;;44.22;;
48623;SDS011;75490;45.802;16.114;2024-01-15T07:16:59;82.90;;;43.25;;
48623;SDS011;75490;45.802;16.114;2024-01-15T07:19:26;80.80;;;45.28;;
48623;SDS011;75490;45.802;16.114;2024-01-15T07:21:52;79.03;;;46.28;;
48623;SDS011;75490;45.802;16.114;2024-01-15T07:24:19;82.90;;;45.55;;
48623;SDS011;75490;45.802;16.114;2024-01-15T07:26:46;88.10;;;53.92;;
48623;SDS011;75490;45.802;16.114;2024-01-15T07:29:13;98.68;;;56.83;;
48623;SDS011;75490;45.802;16.114;2024-01-15T07:31:39;88.80;;;52.55;;
48623;SDS011;75490;45.802;16.114;2024-01-15T07:34:06;94.05;;;53.90;;
48623;SDS011;75490;45.802;16.114;2024-01-15T07:36:33;89.28;;;51.63;;
48623;SDS011;75490;45.802;16.114;2024-01-15T07:39:00;90.80;;;54.58;;
48623;SDS011;75490;45.802;16.114;2024-01-15T07:41:27;87.78;;;52.72;;
48623;SDS011;75490;45.802;16.114;2024-01-15T07:43:53;82.20;;;49.80;;
48623;SDS011;75490;45.802;16.114;2024-01-15T07:46:20;104.55;;;59.17;;
48623;SDS011;75490;45.802;16.114;2024-01-15T07:48:48;110.72;;;65.25;;
48623;SDS011;75490;45.802;16.114;2024-01-15T07:51:17;103.80;;;63.10;;
48623;SDS011;75490;45.802;16.114;2024-01-15T07:53:45;106.65;;;62.78;;
48623;SDS011;75490;45.802;16.114;2024-01-15T07:56:11;107.30;;;62.55;;
48623;SDS011;75490;45.802;16.114;2024-01-15T07:58:38;107.43;;;60.80;;
48623;SDS011;75490;45.802;16.114;2024-01-15T08:01:05;97.10;;;55.80;;
48623;SDS011;75490;45.802;16.114;2024-01-15T08:03:33;87.13;;;49.97;;
48623;SDS011;75490;45.802;16.114;2024-01-15T08:06:00;82.25;;;49.90;;
48623;SDS011;75490;45.802;16.114;2024-01-15T08:08:27;80.35;;;44.45;;
48623;SDS011;75490;45.802;16.114;2024-01-15T08:10:54;102.80;;;54.80;;
48623;SDS011;75490;45.802;16.114;2024-01-15T08:13:20;122.68;;;67.20;;
48623;SDS011;75490;45.802;16.114;2024-01-15T08:15:47;132.98;;;70.53;;
48623;SDS011;75490;45.802;16.114;2024-01-15T08:18:14;119.63;;;64.63;;
48623;SDS011;75490;45.802;16.114;2024-01-15T08:20:41;112.20;;;61.60;;
48623;SDS011;75490;45.802;16.114;2024-01-15T08:23:08;104.93;;;55.97;;
48623;SDS011;75490;45.802;16.114;2024-01-15T08:25:36;85.95;;;49.22;;
48623;SDS011;75490;45.802;16.114;2024-01-15T08:28:02;86.85;;;49.70;;
48623;SDS011;75490;45.802;16.114;2024-01-15T08:30:29;86.50;;;46.78;;
48623;SDS011;75490;45.802;16.114;2024-01-15T08:32:56;81.53;;;44.25;;
48623;SDS011;75490;45.802;16.114;2024-01-15T08:35:23;83.22;;;46.15;;
48623;SDS011;75490;45.802;16.114;2024-01-15T08:37:52;81.55;;;45.30;;
48623;SDS011;75490;45.802;16.114;2024-01-15T08:40:19;73.57;;;42.88;;
48623;SDS011;75490;45.802;16.114;2024-01-15T08:42:46;63.95;;;36.80;;
48623;SDS011;75490;45.802;16.114;2024-01-15T08:45:13;72.75;;;42.45;;
48623;SDS011;75490;45.802;16.114;2024-01-15T08:47:40;78.07;;;45.05;;
48623;SDS011;75490;45.802;16.114;2024-01-15T08:50:07;73.43;;;41.13;;
48623;SDS011;75490;45.802;16.114;2024-01-15T08:52:36;78.18;;;40.88;;
48623;SDS011;75490;45.802;16.114;2024-01-15T08:55:03;64.95;;;36.35;;
48623;SDS011;75490;45.802;16.114;2024-01-15T08:57:31;55.97;;;33.13;;
48623;SDS011;75490;45.802;16.114;2024-01-15T08:59:57;49.42;;;29.88;;
48623;SDS011;75490;45.802;16.114;2024-01-15T09:02:25;54.05;;;29.88;;
48623;SDS011;75490;45.802;16.114;2024-01-15T09:04:52;50.10;;;29.00;;
48623;SDS011;75490;45.802;16.114;2024-01-15T09:07:19;52.10;;;30.77;;
48623;SDS011;75490;45.802;16.114;2024-01-15T09:09:45;50.08;;;30.67;;
48623;SDS011;75490;45.802;16.114;2024-01-15T09:12:12;47.17;;;29.55;;
48623;SDS011;75490;45.802;16.114;2024-01-15T09:14:42;53.60;;;31.88;;
48623;SDS011;75490;45.802;16.114;2024-01-15T09:17:08;57.33;;;32.78;;
48623;SDS011;75490;45.802;16.114;2024-01-15T09:19:35;60.22;;;33.78;;
48623;SDS011;75490;45.802;16.114;2024-01-15T09:22:02;60.28;;;37.40;;
48623;SDS011;75490;45.802;16.114;2024-01-15T09:24:29;64.53;;;38.50;;
48623;SDS011;75490;45.802;16.114;2024-01-15T09:26:56;64.50;;;40.28;;
48623;SDS011;75490;45.802;16.114;2024-01-15T09:29:23;63.97;;;38.85;;
48623;SDS011;75490;45.802;16.114;2024-01-15T09:31:50;61.20;;;37.15;;
48623;SDS011;75490;45.802;16.114;2024-01-15T09:34:17;60.95;;;38.30;;
48623;SDS011;75490;45.802;16.114;2024-01-15T09:36:44;62.08;;;37.88;;
48623;SDS011;75490;45.802;16.114;2024-01-15T09:39:11;65.72;;;39.97;;
48623;SDS011;75490;45.802;16.114;2024-01-15T09:41:38;68.15;;;39.67;;
48623;SDS011;75490;45.802;16.114;2024-01-15T09:44:04;66.82;;;42.33;;
48623;SDS011;75490;45.802;16.114;2024-01-15T09:46:34;75.93;;;46.78;;
48623;SDS011;75490;45.802;16.114;2024-01-15T09:49:01;71.03;;;43.28;;
48623;SDS011;75490;45.802;16.114;2024-01-15T09:51:31;64.47;;;39.90;;
48623;SDS011;75490;45.802;16.114;2024-01-15T09:53:58;61.80;;;36.90;;
48623;SDS011;75490;45.802;16.114;2024-01-15T09:56:25;52.05;;;33.45;;
48623;SDS011;75490;45.802;16.114;2024-01-15T09:58:52;59.33;;;36.47;;
48623;SDS011;75490;45.802;16.114;2024-01-15T10:01:22;50.20;;;32.80;;
48623;SDS011;75490;45.802;16.114;2024-01-15T10:03:49;55.95;;;34.60;;
48623;SDS011;75490;45.802;16.114;2024-01-15T10:06:17;52.35;;;33.17;;
48623;SDS011;75490;45.802;16.114;2024-01-15T10:08:49;53.80;;;31.80;;
48623;SDS011;75490;45.802;16.114;2024-01-15T10:11:17;62.50;;;33.65;;
48623;SDS011;75490;45.802;16.114;2024-01-15T10:13:45;56.55;;;31.23;;
48623;SDS011;75490;45.802;16.114;2024-01-15T10:16:12;54.92;;;30.67;;
48623;SDS011;75490;45.802;16.114;2024-01-15T10:18:39;56.25;;;31.00;;
48623;SDS011;75490;45.802;16.114;2024-01-15T10:21:06;48.90;;;30.35;;
48623;SDS011;75490;45.802;16.114;2024-01-15T10:23:34;49.00;;;29.23;;
48623;SDS011;75490;45.802;16.114;2024-01-15T10:26:05;64.00;;;33.25;;
48623;SDS011;75490;45.802;16.114;2024-01-15T10:28:32;59.40;;;36.42;;
48623;SDS011;75490;45.802;16.114;2024-01-15T10:30:59;52.58;;;31.73;;
48623;SDS011;75490;45.802;16.114;2024-01-15T10:33:27;48.47;;;30.02;;
48623;SDS011;75490;45.802;16.114;2024-01-15T10:35:55;60.47;;;36.22;;
48623;SDS011;75490;45.802;16.114;2024-01-15T10:38:24;64.97;;;40.20;;
48623;SDS011;75490;45.802;16.114;2024-01-15T10:40:51;62.53;;;38.22;;
48623;SDS011;75490;45.802;16.114;2024-01-15T10:43:19;52.40;;;32.13;;
48623;SDS011;75490;45.802;16.114;2024-01-15T10:45:47;56.78;;;32.80;;
48623;SDS011;75490;45.802;16.114;2024-01-15T10:48:18;52.72;;;31.08;;
48623;SDS011;75490;45.802;16.114;2024-01-15T10:50:46;50.60;;;31.92;;
48623;SDS011;75490;45.802;16.114;2024-01-15T10:53:14;50.30;;;29.80;;
48623;SDS011;75490;45.802;16.114;2024-01-15T10:55:43;47.78;;;29.48;;
48623;SDS011;75490;45.802;16.114;2024-01-15T10:58:10;47.85;;;28.52;;
48623;SDS011;75490;45.802;16.114;2024-01-15T11:00:37;49.30;;;28.95;;
48623;SDS011;75490;45.802;16.114;2024-01-15T11:03:05;58.83;;;30.08;;
48623;SDS011;75490;45.802;16.114;2024-01-15T11:05:34;53.92;;;31.45;;
48623;SDS011;75490;45.802;16.114;2024-01-15T11:08:04;54.10;;;32.00;;
48623;SDS011;75490;45.802;16.114;2024-01-15T11:13:19;53.83;;;32.13;;
48623;SDS011;75490;45.802;16.114;2024-01-15T11:16:00;55.53;;;31.13;;
48623;SDS011;75490;45.802;16.114;2024-01-15T11:18:31;50.33;;;28.40;;
48623;SDS011;75490;45.802;16.114;2024-01-15T11:23:45;46.28;;;27.05;;
48623;SDS011;75490;45.802;16.114;2024-01-15T11:28:58;44.88;;;26.95;;
48623;SDS011;75490;45.802;16.114;2024-01-15T11:31:27;45.15;;;24.95;;
48623;SDS011;75490;45.802;16.114;2024-01-15T11:34:03;43.30;;;23.95;;
48623;SDS011;75490;45.802;16.114;2024-01-15T11:41:58;44.63;;;25.58;;
48623;SDS011;75490;45.802;16.114;2024-01-15T11:44:31;45.38;;;27.73;;
48623;SDS011;75490;45.802;16.114;2024-01-15T11:46:59;42.20;;;26.00;;
48623;SDS011;75490;45.802;16.114;2024-01-15T11:52:18;49.53;;;28.60;;
48623;SDS011;75490;45.802;16.114;2024-01-15T11:55:00;51.55;;;29.88;;
48623;SDS011;75490;45.802;16.114;2024-01-15T11:57:37;47.22;;;29.02;;
48623;SDS011;75490;45.802;16.114;2024-01-15T12:00:15;49.65;;;28.13;;
48623;SDS011;75490;45.802;16.114;2024-01-15T12:02:43;54.80;;;30.35;;
48623;SDS011;75490;45.802;16.114;2024-01-15T12:05:12;52.08;;;28.52;;
48623;SDS011;75490;45.802;16.114;2024-01-15T12:07:41;52.53;;;27.15;;
48623;SDS011;75490;45.802;16.114;2024-01-15T12:10:12;44.00;;;25.05;;
48623;SDS011;75490;45.802;16.114;2024-01-15T12:15:25;49.35;;;28.55;;
48623;SDS011;75490;45.802;16.114;2024-01-15T12:17:59;56.40;;;31.05;;
48623;SDS011;75490;45.802;16.114;2024-01-15T12:20:29;50.13;;;28.25;;
48623;SDS011;75490;45.802;16.114;2024-01-15T12:22:57;56.35;;;30.17;;
48623;SDS011;75490;45.802;16.114;2024-01-15T12:25:25;53.70;;;29.75;;
48623;SDS011;75490;45.802;16.114;2024-01-15T12:27:55;40.80;;;23.25;;
48623;SDS011;75490;45.802;16.114;2024-01-15T12:30:23;58.85;;;30.85;;
48623;SDS011;75490;45.802;16.114;2024-01-15T12:32:50;55.60;;;31.35;;
48623;SDS011;75490;45.802;16.114;2024-01-15T12:35:16;56.28;;;31.17;;
48623;SDS011;75490;45.802;16.114;2024-01-15T12:37:43;58.35;;;32.53;;
48623;SDS011;75490;45.802;16.114;2024-01-15T12:40:13;65.38;;;32.92;;
48623;SDS011;75490;45.802;16.114;2024-01-15T12:42:44;57.05;;;32.88;;
48623;SDS011;75490;45.802;16.114;2024-01-15T12:45:12;60.03;;;32.50;;
48623;SDS011;75490;45.802;16.114;2024-01-15T12:47:40;52.72;;;28.90;;
48623;SDS011;75490;45.802;16.114;2024-01-15T12:50:11;53.90;;;29.50;;
48623;SDS011;75490;45.802;16.114;2024-01-15T12:52:42;61.50;;;30.50;;
48623;SDS011;75490;45.802;16.114;2024-01-15T12:55:09;53.45;;;29.95;;
48623;SDS011;75490;45.802;16.114;2024-01-15T12:57:36;55.08;;;29.58;;
48623;SDS011;75490;45.802;16.114;2024-01-15T13:00:04;60.78;;;30.83;;
48623;SDS011;75490;45.802;16.114;2024-01-15T13:02:39;60.65;;;30.05;;
48623;SDS011;75490;45.802;16.114;2024-01-15T13:05:09;66.13;;;33.45;;
48623;SDS011;75490;45.802;16.114;2024-01-15T13:07:37;62.35;;;36.35;;
48623;SDS011;75490;45.802;16.114;2024-01-15T13:10:05;64.85;;;31.80;;
48623;SDS011;75490;45.802;16.114;2024-01-15T13:12:38;61.55;;;31.15;;
48623;SDS011;75490;45.802;16.114;2024-01-15T13:15:26;53.65;;;28.65;;
48623;SDS011;75490;45.802;16.114;2024-01-15T13:17:53;59.80;;;29.83;;
48623;SDS011;75490;45.802;16.114;2024-01-15T13:20:19;55.97;;;29.58;;
48623;SDS011;75490;45.802;16.114;2024-01-15T13:22:46;59.00;;;31.92;;
48623;SDS011;75490;45.802;16.114;2024-01-15T13:25:13;56.10;;;30.90;;
48623;SDS011;75490;45.802;16.114;2024-01-15T13:27:40;65.38;;;33.53;;
48623;SDS011;75490;45.802;16.114;2024-01-15T13:30:07;60.00;;;32.30;;
48623;SDS011;75490;45.802;16.114;2024-01-15T13:32:34;65.80;;;34.17;;
48623;SDS011;75490;45.802;16.114;2024-01-15T13:35:01;68.32;;;34.47;;
48623;SDS011;75490;45.802;16.114;2024-01-15T13:37:31;64.25;;;34.45;;
48623;SDS011;75490;45.802;16.114;2024-01-15T13:39:58;69.13;;;35.47;;
48623;SDS011;75490;45.802;16.114;2024-01-15T13:42:25;69.35;;;32.40;;
48623;SDS011;75490;45.802;16.114;2024-01-15T13:44:53;65.93;;;33.00;;
48623;SDS011;75490;45.802;16.114;2024-01-15T13:47:20;64.93;;;35.92;;
48623;SDS011;75490;45.802;16.114;2024-01-15T13:49:47;85.63;;;39.85;;
48623;SDS011;75490;45.802;16.114;2024-01-15T13:52:14;88.45;;;47.50;;
48623;SDS011;75490;45.802;16.114;2024-01-15T13:54:41;76.00;;;36.67;;
48623;SDS011;75490;45.802;16.114;2024-01-15T13:57:09;72.93;;;37.88;;
48623;SDS011;75490;45.802;16.114;2024-01-15T13:59:36;73.57;;;38.65;;
48623;SDS011;75490;45.802;16.114;2024-01-15T14:02:02;76.78;;;37.47;;
48623;SDS011;75490;45.802;16.114;2024-01-15T14:04:29;63.15;;;32.95;;
48623;SDS011;75490;45.802;16.114;2024-01-15T14:06:56;54.92;;;31.08;;
48623;SDS011;75490;45.802;16.114;2024-01-15T14:09:23;62.70;;;33.50;;
48623;SDS011;75490;45.802;16.114;2024-01-15T14:11:50;70.63;;;36.42;;
48623;SDS011;75490;45.802;16.114;2024-01-15T14:14:17;64.25;;;33.65;;
48623;SDS011;75490;45.802;16.114;2024-01-15T14:16:43;67.07;;;34.38;;
48623;SDS011;75490;45.802;16.114;2024-01-15T14:19:10;55.80;;;33.67;;
48623;SDS011;75490;45.802;16.114;2024-01-15T14:21:37;61.92;;;35.38;;
48623;SDS011;75490;45.802;16.114;2024-01-15T14:24:05;63.75;;;33.97;;
48623;SDS011;75490;45.802;16.114;2024-01-15T14:26:32;69.10;;;35.67;;